Time;durP1;ratioP1;P1;durP2;ratioP2;P2;SDS_P1;SDS_P2;PMS_P1;PMS_P2;Temp;Humidity;BMP_temperature;BMP_pressure;BME280_temperature;BME280_humidity;BME280_pressure;Samples;Min_cycle;Max_cycle;Signal;HPM_P1;HPM_P2
2023/03/01 00:01:28;;;;;;;7.77;5.97;;;;;;;-2.53;100.00;102955.34;5066339;28;20031;-65
2023/03/01 00:03:54;;;;;;;6.30;5.70;;;;;;;-2.55;100.00;102950.06;5067571;28;20035;-63
2023/03/01 00:06:21;;;;;;;6.63;5.13;;;;;;;-2.57;100.00;102937.91;5067662;28;20024;-64
2023/03/01 00:08:47;;;;;;;5.80;5.20;;;;;;;-2.56;100.00;102945.75;5067591;28;20498;-63
2023/03/01 00:11:20;;;;;;;6.77;5.70;;;;;;;-2.57;100.00;102948.06;5066320;28;20063;-63
2023/03/01 00:13:48;;;;;;;6.63;6.00;;;;;;;-2.60;100.00;102947.72;5066120;28;20155;-66
2023/03/01 00:16:16;;;;;;;7.87;5.50;;;;;;;-2.60;100.00;102952.78;5067062;28;20020;-63
2023/03/01 00:18:43;;;;;;;8.20;6.00;;;;;;;-2.61;100.00;102948.44;5067669;28;20020;-63
2023/03/01 00:21:09;;;;;;;7.30;6.50;;;;;;;-2.60;100.00;102945.16;5068043;28;20020;-63
2023/03/01 00:23:34;;;;;;;7.07;6.20;;;;;;;-2.62;100.00;102944.06;5067152;28;20389;-66
2023/03/01 00:26:00;;;;;;;8.10;6.20;;;;;;;-2.66;100.00;102947.88;5060030;28;20604;-63
2023/03/01 00:28:25;;;;;;;7.40;5.50;;;;;;;-2.68;100.00;102942.63;5048842;28;20025;-63
2023/03/01 00:30:51;;;;;;;8.23;5.77;;;;;;;-2.72;100.00;102945.53;5054383;28;20804;-63
2023/03/01 00:33:16;;;;;;;7.37;6.13;;;;;;;-2.72;100.00;102947.16;5053759;28;20025;-64
2023/03/01 00:35:42;;;;;;;7.10;5.87;;;;;;;-2.75;100.00;102937.53;5059935;28;20035;-63
2023/03/01 00:38:08;;;;;;;6.73;5.83;;;;;;;-2.76;100.00;102948.41;5058398;28;20059;-63
2023/03/01 00:40:34;;;;;;;7.27;5.53;;;;;;;-2.77;100.00;102944.06;5053705;28;20025;-63
2023/03/01 00:43:00;;;;;;;6.53;5.83;;;;;;;-2.79;100.00;102940.44;5067492;28;20115;-63
2023/03/01 00:45:26;;;;;;;8.77;6.23;;;;;;;-2.82;100.00;102951.13;5065452;28;20573;-63
2023/03/01 00:47:52;;;;;;;7.30;6.60;;;;;;;-2.84;100.00;102947.47;5059128;28;20494;-63
2023/03/01 00:50:18;;;;;;;6.90;6.17;;;;;;;-2.86;100.00;102938.78;5050166;28;20131;-64
2023/03/01 00:52:44;;;;;;;7.63;6.37;;;;;;;-2.88;100.00;102929.19;5048116;28;20095;-63
2023/03/01 00:55:11;;;;;;;6.67;5.63;;;;;;;-2.90;100.00;102937.50;5062694;28;20044;-63
2023/03/01 00:57:36;;;;;;;7.17;6.07;;;;;;;-2.91;100.00;102930.63;5061969;28;20043;-63
2023/03/01 01:00:04;;;;;;;7.27;6.40;;;;;;;-2.92;100.00;102935.50;5068005;28;20017;-64
2023/03/01 01:02:29;;;;;;;7.13;6.43;;;;;;;-2.95;100.00;102925.88;5061421;28;20017;-63
2023/03/01 01:04:54;;;;;;;6.83;6.13;;;;;;;-2.96;100.00;102916.47;5056832;28;20484;-63
2023/03/01 01:07:19;;;;;;;7.07;6.37;;;;;;;-2.99;100.00;102915.19;5061355;28;20060;-63
2023/03/01 01:09:45;;;;;;;9.03;6.03;;;;;;;-2.98;100.00;102919.53;5055887;28;20013;-63
2023/03/01 01:12:10;;;;;;;7.17;6.13;;;;;;;-3.02;100.00;102913.19;5058109;28;20024;-63
2023/03/01 01:14:36;;;;;;;7.57;6.77;;;;;;;-3.02;100.00;102915.72;5070193;28;20017;-63
2023/03/01 01:17:01;;;;;;;7.10;6.40;;;;;;;-3.07;100.00;102921.88;5070513;28;20077;-63
2023/03/01 01:19:27;;;;;;;8.30;6.90;;;;;;;-3.08;100.00;102917.53;5064801;28;20025;-63
2023/03/01 01:21:52;;;;;;;8.60;6.90;;;;;;;-3.07;100.00;102914.25;5051086;28;20465;-63
2023/03/01 01:24:18;;;;;;;7.50;6.17;;;;;;;-3.09;100.00;102913.16;5064781;28;20021;-64
2023/03/01 01:26:44;;;;;;;7.90;6.20;;;;;;;-3.15;100.00;102906.63;5052053;28;20051;-64
2023/03/01 01:29:09;;;;;;;7.33;6.27;;;;;;;-3.18;100.00;102901.19;5070021;28;20030;-64
2023/03/01 01:31:36;;;;;;;7.83;6.83;;;;;;;-3.20;100.00;102892.47;5070168;28;20171;-64
2023/03/01 01:34:05;;;;;;;7.27;6.47;;;;;;;-3.24;100.00;102885.25;5065889;28;20051;-64
2023/03/01 01:36:31;;;;;;;7.17;6.47;;;;;;;-3.25;100.00;102880.88;5069991;28;20036;-64
2023/03/01 01:38:56;;;;;;;7.80;7.00;;;;;;;-3.26;100.00;102884.16;5064040;28;20029;-64
2023/03/01 01:41:24;;;;;;;6.63;5.83;;;;;;;-3.29;100.00;102873.63;5063099;28;20035;-64
2023/03/01 01:44:10;;;;;;;7.67;6.83;;;;;;;-3.33;100.00;102871.44;5057777;28;20040;-64
2023/03/01 01:46:38;;;;;;;9.40;7.23;;;;;;;-3.36;100.00;102873.59;5066858;28;20272;-64
2023/03/01 01:49:12;;;;;;;8.73;7.37;;;;;;;-3.39;100.00;102872.50;5050824;28;20359;-64
2023/03/01 01:51:42;;;;;;;8.40;6.87;;;;;;;-3.40;100.00;102878.28;5068043;28;20032;-64
2023/03/01 01:54:23;;;;;;;8.27;7.23;;;;;;;-3.43;100.00;102870.31;5070745;28;20024;-64
2023/03/01 01:56:56;;;;;;;7.47;6.60;;;;;;;-3.44;100.00;102873.59;5069943;28;20034;-64
2023/03/01 01:59:24;;;;;;;8.10;6.57;;;;;;;-3.45;100.00;102869.22;5066800;28;20472;-64
2023/03/01 02:01:51;;;;;;;8.87;7.33;;;;;;;-3.44;100.00;102865.06;5060086;28;20024;-64
2023/03/01 02:04:16;;;;;;;8.00;6.90;;;;;;;-3.46;100.00;102864.88;5056374;28;20353;-64
2023/03/01 02:06:51;;;;;;;6.80;6.20;;;;;;;-3.47;100.00;102855.44;5059474;28;20023;-64
2023/03/01 02:09:20;;;;;;;6.87;6.17;;;;;;;-3.48;100.00;102852.72;5062605;28;20275;-64
2023/03/01 02:11:47;;;;;;;8.87;7.53;;;;;;;-3.49;100.00;102856.91;5051481;28;20024;-64
2023/03/01 02:14:12;;;;;;;8.37;7.33;;;;;;;-3.49;100.00;102856.91;5065951;28;20137;-64
2023/03/01 02:16:37;;;;;;;8.53;7.63;;;;;;;-3.55;100.00;102853.59;5069946;28;20508;-64
2023/03/01 02:19:05;;;;;;;8.03;6.57;;;;;;;-3.59;100.00;102852.31;5061333;28;20028;-64
2023/03/01 02:21:41;;;;;;;8.53;7.07;;;;;;;-3.60;100.00;102847.06;5056431;28;20038;-64
2023/03/01 02:24:25;;;;;;;9.07;7.00;;;;;;;-3.62;100.00;102845.25;5070027;28;20419;-64
2023/03/01 02:26:54;;;;;;;9.30;7.53;;;;;;;-3.61;100.00;102843.63;5050334;28;20025;-64
2023/03/01 02:29:22;;;;;;;7.73;6.67;;;;;;;-3.60;100.00;102847.06;5051273;28;20568;-64
2023/03/01 02:31:49;;;;;;;7.73;6.47;;;;;;;-3.59;100.00;102843.81;5050222;28;20060;-64
2023/03/01 02:34:18;;;;;;;7.10;6.40;;;;;;;-3.59;100.00;102839.66;5066772;28;20044;-64
2023/03/01 02:36:56;;;;;;;8.90;5.77;;;;;;;-3.61;100.00;102846.16;5068891;28;20021;-64
2023/03/01 02:39:27;;;;;;;7.77;6.40;;;;;;;-3.62;100.00;102846.91;5069017;28;20047;-64
2023/03/01 02:41:54;;;;;;;9.87;6.97;;;;;;;-3.63;100.00;102845.97;5069636;28;20389;-64
2023/03/01 02:44:21;;;;;;;7.73;6.60;;;;;;;-3.62;100.00;102845.25;5056176;28;20477;-64
2023/03/01 02:46:53;;;;;;;8.10;6.63;;;;;;;-3.63;100.00;102845.97;5068974;28;20031;-64
2023/03/01 02:49:22;;;;;;;7.17;6.40;;;;;;;-3.60;100.00;102853.06;5068975;28;20525;-64
2023/03/01 02:52:01;;;;;;;8.10;6.27;;;;;;;-3.58;100.00;102848.19;5068056;28;20082;-64
2023/03/01 02:54:32;;;;;;;6.70;6.00;;;;;;;-3.60;100.00;102849.59;5069415;28;20029;-64
2023/03/01 02:56:58;;;;;;;7.85;6.85;;;;;;;-3.60;100.00;102845.47;5069093;28;20459;-64
2023/03/01 02:59:28;;;;;;;7.10;6.40;;;;;;;-3.58;100.00;102848.19;5068867;28;20012;-64
2023/03/01 03:01:54;;;;;;;7.80;6.70;;;;;;;-3.63;100.00;102832.38;5068969;28;20020;-64
2023/03/01 03:04:20;;;;;;;8.60;6.97;;;;;;;-3.63;100.00;102832.38;5068573;28;20016;-64
2023/03/01 03:06:48;;;;;;;6.10;5.50;;;;;;;-3.63;100.00;102843.44;5068594;28;20024;-64
2023/03/01 03:09:15;;;;;;;7.67;5.90;;;;;;;-3.62;100.00;102842.72;5068688;28;20040;-64
2023/03/01 03:11:42;;;;;;;8.00;6.30;;;;;;;-3.66;100.00;102840.53;5060509;28;20384;-64
2023/03/01 03:14:15;;;;;;;6.33;5.73;;;;;;;-3.67;100.00;102847.97;5050131;28;20461;-64
2023/03/01 03:16:46;;;;;;;9.77;6.77;;;;;;;-3.70;100.00;102845.03;5051508;28;20745;-64
2023/03/01 03:19:11;;;;;;;7.88;6.05;;;;;;;-3.71;100.00;102840.69;5054817;28;20039;-64
2023/03/01 03:21:37;;;;;;;7.13;6.30;;;;;;;-3.72;100.00;102843.97;5059734;28;20056;-64
2023/03/01 03:24:03;;;;;;;8.00;6.07;;;;;;;-3.76;100.00;102840.16;5054186;28;20077;-64
2023/03/01 03:26:28;;;;;;;6.90;6.20;;;;;;;-3.78;100.00;102841.56;5068989;28;20028;-64
2023/03/01 03:28:54;;;;;;;6.97;5.93;;;;;;;-3.80;100.00;102835.41;5055035;28;20468;-64
2023/03/01 03:31:19;;;;;;;8.50;6.23;;;;;;;-3.84;100.00;102844.25;5068110;28;20074;-64
2023/03/01 03:33:44;;;;;;;9.80;6.60;;;;;;;-3.81;100.00;102841.22;5050586;28;20053;-64
2023/03/01 03:36:17;;;;;;;7.67;6.07;;;;;;;-3.83;100.00;102824.91;5062158;28;20122;-64
2023/03/01 03:38:43;;;;;;;9.73;6.00;;;;;;;-3.86;100.00;102828.88;5048937;28;20408;-64
2023/03/01 03:41:09;;;;;;;9.70;6.30;;;;;;;-3.91;100.00;102822.34;5068396;28;20616;-64
2023/03/01 03:43:36;;;;;;;9.17;5.70;;;;;;;-3.91;100.00;102824.88;5068680;28;20020;-64
2023/03/01 03:46:06;;;;;;;10.37;6.37;;;;;;;-3.91;100.00;102832.47;5060597;28;20445;-64
2023/03/01 03:48:35;;;;;;;7.80;6.70;;;;;;;-3.92;100.00;102834.81;5050064;28;20214;-64
2023/03/01 03:51:00;;;;;;;8.27;6.00;;;;;;;-3.94;100.00;102833.72;5057649;28;20052;-64
2023/03/01 03:53:28;;;;;;;6.40;5.53;;;;;;;-3.95;100.00;102832.81;5067992;28;20081;-65
2023/03/01 03:55:54;;;;;;;9.63;6.57;;;;;;;-3.96;100.00;102833.53;5068300;28;20088;-64
2023/03/01 03:58:22;;;;;;;6.93;5.93;;;;;;;-3.97;100.00;102824.09;5063563;28;20259;-65
2023/03/01 04:00:51;;;;;;;7.27;5.53;;;;;;;-3.98;100.00;102825.75;5049027;28;20105;-64
2023/03/01 04:03:18;;;;;;;10.37;6.37;;;;;;;-3.95;100.00;102824.28;5060890;28;20013;-64
2023/03/01 04:05:44;;;;;;;7.20;5.57;;;;;;;-3.95;100.00;102819.22;5049300;28;20041;-64
2023/03/01 04:08:10;;;;;;;6.70;6.00;;;;;;;-3.97;100.00;102813.97;5061807;28;20036;-64
2023/03/01 04:10:39;;;;;;;7.07;6.30;;;;;;;-3.98;100.00;102802.94;5058509;28;20517;-64
2023/03/01 04:13:06;;;;;;;6.27;5.63;;;;;;;-3.96;100.00;102810.72;5054797;28;20032;-64
2023/03/01 04:15:32;;;;;;;7.13;5.57;;;;;;;-3.97;100.00;102803.84;5067524;28;20024;-64
2023/03/01 04:17:59;;;;;;;6.80;5.63;;;;;;;-3.96;100.00;102808.19;5068050;28;20461;-64
2023/03/01 04:20:28;;;;;;;5.67;5.07;;;;;;;-3.98;100.00;102796.97;5066919;28;20092;-64
2023/03/01 04:23:10;;;;;;;8.63;5.53;;;;;;;-3.98;100.00;102800.41;5066470;28;20103;-64
2023/03/01 04:25:36;;;;;;;7.60;5.97;;;;;;;-4.03;100.00;102800.56;5067526;28;20032;-64
2023/03/01 04:28:02;;;;;;;6.90;4.90;;;;;;;-3.97;100.00;102806.38;5067877;28;20086;-64
2023/03/01 04:30:27;;;;;;;7.97;5.57;;;;;;;-3.99;100.00;102801.13;5050219;28;20025;-64
2023/03/01 04:32:52;;;;;;;7.23;5.47;;;;;;;-3.99;100.00;102805.25;5047506;28;20544;-64
2023/03/01 04:35:18;;;;;;;6.63;4.90;;;;;;;-4.01;100.00;102802.53;5057123;28;20036;-64
2023/03/01 04:37:44;;;;;;;9.17;5.77;;;;;;;-4.03;100.00;102796.38;5062103;28;20059;-64
2023/03/01 04:40:16;;;;;;;6.13;5.00;;;;;;;-4.03;100.00;102796.38;5062857;28;20082;-64
2023/03/01 04:42:42;;;;;;;;;;;;;;;-4.04;100.00;102798.72;5068361;28;20035;-64
2023/03/01 04:45:12;;;;;;;7.30;5.40;;;;;;;-4.05;100.00;102792.78;5062622;28;19915;-64
2023/03/01 04:47:39;;;;;;;7.80;5.05;;;;;;;-4.05;100.00;102784.25;5061924;28;20032;-64
2023/03/01 04:50:05;;;;;;;6.20;5.17;;;;;;;-4.07;100.00;102789.16;5060928;28;20460;-64
2023/03/01 04:52:31;;;;;;;7.07;5.30;;;;;;;-4.10;100.00;102784.59;5060342;28;20392;-64
2023/03/01 04:54:56;;;;;;;6.87;5.90;;;;;;;-4.12;100.00;102775.00;5058536;28;20278;-64
2023/03/01 04:57:22;;;;;;;8.67;5.80;;;;;;;-4.14;100.00;102777.38;5067133;28;20078;-65
2023/03/01 04:59:47;;;;;;;8.60;5.13;;;;;;;-4.13;100.00;102781.69;5055553;28;20037;-65
2023/03/01 05:02:12;;;;;;;5.43;4.93;;;;;;;-4.12;100.00;102788.56;5060347;28;20055;-65
2023/03/01 05:04:37;;;;;;;7.13;5.10;;;;;;;-4.13;100.00;102789.28;5066055;28;20039;-65
2023/03/01 05:07:03;;;;;;;6.13;5.23;;;;;;;-4.12;100.00;102786.03;5062847;28;20465;-64
2023/03/01 05:09:28;;;;;;;5.87;4.80;;;;;;;-4.15;100.00;102782.22;5056178;28;20157;-64
2023/03/01 05:11:53;;;;;;;5.90;5.30;;;;;;;-4.18;100.00;102785.28;5051413;28;20461;-64
2023/03/01 05:14:18;;;;;;;7.73;5.83;;;;;;;-4.20;100.00;102784.19;5062533;28;20025;-65
2023/03/01 05:16:44;;;;;;;6.90;5.50;;;;;;;-4.24;100.00;102780.38;5064018;28;20077;-64
2023/03/01 05:19:15;;;;;;;7.93;4.97;;;;;;;-4.25;100.00;102785.25;5064625;28;20016;-64
2023/03/01 05:22:01;;;;;;;7.38;5.22;;;;;;;-4.28;100.00;102777.28;5057748;28;20424;-64
2023/03/01 05:24:26;;;;;;;7.23;5.37;;;;;;;-4.32;100.00;102760.81;5054484;28;20500;-64
2023/03/01 05:26:52;;;;;;;7.03;5.77;;;;;;;-4.30;100.00;102768.59;5065728;28;20024;-63
2023/03/01 05:29:24;;;;;;;6.93;5.30;;;;;;;-4.34;100.00;102753.03;5054917;28;20058;-64
2023/03/01 05:31:53;;;;;;;7.60;5.53;;;;;;;-4.34;100.00;102752.09;5066240;28;20060;-64
2023/03/01 05:34:23;;;;;;;5.80;5.17;;;;;;;-4.36;100.00;102754.44;5061310;28;20104;-64
2023/03/01 05:36:52;;;;;;;8.17;5.40;;;;;;;-4.37;100.00;102752.63;5067088;28;20562;-64
2023/03/01 05:39:22;;;;;;;7.77;5.60;;;;;;;-4.40;100.00;102747.19;5053083;28;20059;-64
2023/03/01 05:41:48;;;;;;;6.60;5.10;;;;;;;-4.38;100.00;102735.63;5063837;28;20373;-64
2023/03/01 05:44:13;;;;;;;7.67;5.97;;;;;;;-4.40;100.00;102737.06;5059815;28;20082;-64
2023/03/01 05:46:38;;;;;;;6.87;5.60;;;;;;;-4.42;100.00;102738.50;5057460;28;20100;-64
2023/03/01 05:49:04;;;;;;;7.43;5.80;;;;;;;-4.44;100.00;102739.91;5056683;28;20107;-64
2023/03/01 05:51:29;;;;;;;7.10;5.93;;;;;;;-4.45;100.00;102735.59;5070988;28;20033;-64
2023/03/01 05:53:55;;;;;;;7.80;6.00;;;;;;;-4.50;100.00;102735.03;5057213;28;20417;-64
2023/03/01 05:56:22;;;;;;;6.67;6.00;;;;;;;-4.51;100.00;102737.34;5063262;28;20047;-64
2023/03/01 05:58:49;;;;;;;7.80;6.20;;;;;;;-4.51;100.00;102737.34;5065497;28;20033;-64
2023/03/01 06:01:14;;;;;;;7.60;5.33;;;;;;;-4.53;100.00;102742.22;5061621;28;20461;-64
2023/03/01 06:03:39;;;;;;;7.73;6.40;;;;;;;-4.54;100.00;102742.03;5058287;28;20113;-64
2023/03/01 06:06:05;;;;;;;9.40;6.57;;;;;;;-4.54;100.00;102742.94;5060763;28;20013;-64
2023/03/01 06:08:30;;;;;;;8.17;6.27;;;;;;;-4.53;100.00;102741.34;5063302;28;20024;-64
2023/03/01 06:10:55;;;;;;;7.80;6.17;;;;;;;-4.56;100.00;102741.84;5066259;28;20103;-64
2023/03/01 06:13:22;;;;;;;7.87;6.20;;;;;;;-4.56;100.00;102740.94;5048421;28;20100;-64
2023/03/01 06:15:48;;;;;;;8.27;6.00;;;;;;;-4.60;100.00;102730.44;5062797;28;20116;-64
2023/03/01 06:18:13;;;;;;;7.93;6.67;;;;;;;-4.60;100.00;102732.97;5064453;28;20520;-64
2023/03/01 06:20:38;;;;;;;6.63;5.67;;;;;;;-4.59;100.00;102733.88;5060692;28;20028;-64
2023/03/01 06:23:03;;;;;;;8.07;6.87;;;;;;;-4.59;100.00;102733.88;5068828;28;20097;-64
2023/03/01 06:25:29;;;;;;;9.20;6.17;;;;;;;-4.58;100.00;102741.66;5068666;28;20091;-63
2023/03/01 06:27:54;;;;;;;7.97;6.73;;;;;;;-4.56;100.00;102733.34;5068728;28;20631;-64
2023/03/01 06:30:22;;;;;;;8.73;6.80;;;;;;;-4.52;100.00;102738.06;5068453;28;20040;-64
2023/03/01 06:32:48;;;;;;;8.73;7.13;;;;;;;-4.52;100.00;102749.13;5067690;28;20102;-64
2023/03/01 06:35:17;;;;;;;9.93;7.20;;;;;;;-4.49;100.00;102746.03;5068792;28;20016;-64
2023/03/01 06:37:43;;;;;;;8.37;6.43;;;;;;;-4.45;100.00;102743.19;5067556;28;20028;-64
2023/03/01 06:40:11;;;;;;;8.13;6.20;;;;;;;-4.43;100.00;102743.38;5069798;28;20485;-64
2023/03/01 06:42:37;;;;;;;8.07;6.70;;;;;;;-4.42;100.00;102745.16;5068773;28;20431;-64
2023/03/01 06:45:05;;;;;;;7.57;6.00;;;;;;;-4.39;100.00;102748.97;5064535;28;20048;-64
2023/03/01 06:47:31;;;;;;;8.80;6.77;;;;;;;-4.37;100.00;102747.56;5061264;28;20368;-64
2023/03/01 06:49:56;;;;;;;7.13;6.43;;;;;;;-4.35;100.00;102747.75;5061007;28;20190;-64
2023/03/01 06:52:21;;;;;;;9.43;6.80;;;;;;;-4.33;100.00;102748.84;5068073;28;20446;-64
2023/03/01 06:54:47;;;;;;;9.20;7.37;;;;;;;-4.32;100.00;102749.75;5067253;28;20019;-64
2023/03/01 06:57:12;;;;;;;7.47;6.37;;;;;;;-4.30;100.00;102746.69;5068052;28;20035;-64
2023/03/01 06:59:37;;;;;;;9.90;7.33;;;;;;;-4.27;100.00;102748.69;5062466;28;20377;-64
2023/03/01 07:02:03;;;;;;;7.20;6.07;;;;;;;-4.23;100.00;102736.59;5067597;28;20031;-64
2023/03/01 07:04:29;;;;;;;7.87;6.97;;;;;;;-4.17;100.00;102731.38;5055157;28;20555;-64
2023/03/01 07:06:55;;;;;;;8.43;7.17;;;;;;;-4.08;100.00;102736.66;5064532;28;20035;-64
2023/03/01 07:09:22;;;;;;;9.83;7.43;;;;;;;-4.01;100.00;102738.31;5066933;28;20028;-64
2023/03/01 07:11:48;;;;;;;9.40;6.63;;;;;;;-3.94;100.00;102725.66;5069302;28;20110;-64
2023/03/01 07:14:13;;;;;;;8.33;7.43;;;;;;;-3.88;100.00;102725.50;5063054;28;20202;-64
2023/03/01 07:16:38;;;;;;;9.20;7.17;;;;;;;-3.82;100.00;102741.47;5061699;28;20036;-64
2023/03/01 07:19:05;;;;;;;12.03;7.93;;;;;;;-3.73;100.00;102746.72;5057572;28;20030;-64
2023/03/01 07:21:30;;;;;;;8.37;6.77;;;;;;;-3.51;100.00;102750.22;5054616;28;20090;-64
2023/03/01 07:23:56;;;;;;;7.83;6.97;;;;;;;-3.33;100.00;102750.63;5059804;28;20029;-64
2023/03/01 07:26:21;;;;;;;8.37;7.07;;;;;;;-3.10;100.00;102754.06;5059675;28;20538;-64
2023/03/01 07:28:46;;;;;;;9.57;7.00;;;;;;;-2.82;100.00;102758.22;5064296;28;20036;-64
2023/03/01 07:31:11;;;;;;;8.00;6.37;;;;;;;-2.54;100.00;102755.47;5053063;28;20476;-64
2023/03/01 07:33:37;;;;;;;7.83;6.43;;;;;;;-2.32;100.00;102757.97;5058125;28;20218;-64
2023/03/01 07:36:03;;;;;;;10.37;7.10;;;;;;;-2.09;100.00;102762.22;5066087;28;20055;-64
2023/03/01 07:38:29;;;;;;;8.50;6.37;;;;;;;-1.84;100.00;102754.84;5067644;28;20090;-64
2023/03/01 07:41:00;;;;;;;9.13;7.07;;;;;;;-1.55;100.00;102759.78;5064164;28;20675;-64
2023/03/01 07:43:25;;;;;;;8.32;7.20;;;;;;;-1.24;98.36;102753.00;5057621;28;20025;-64
2023/03/01 07:45:51;;;;;;;7.27;6.40;;;;;;;-1.09;96.24;102752.91;5057873;28;20077;-64
2023/03/01 07:48:16;;;;;;;8.53;6.87;;;;;;;-1.03;95.47;102751.06;5057748;28;20139;-64
2023/03/01 07:50:41;;;;;;;7.77;6.13;;;;;;;-1.04;96.01;102754.31;5052601;28;20044;-63
2023/03/01 07:53:07;;;;;;;9.07;6.30;;;;;;;-0.97;95.30;102754.25;5053575;28;20036;-64
2023/03/01 07:55:33;;;;;;;9.40;6.80;;;;;;;-0.83;95.06;102756.50;5049238;28;20033;-64
2023/03/01 07:57:58;;;;;;;8.37;7.03;;;;;;;-0.67;93.97;102749.81;5062517;28;20518;-64
2023/03/01 08:00:24;;;;;;;7.60;6.40;;;;;;;-0.47;94.00;102753.63;5056435;28;20025;-64
2023/03/01 08:02:49;;;;;;;8.17;6.57;;;;;;;-0.13;93.99;102751.22;5055447;28;20110;-64
2023/03/01 08:05:14;;;;;;;7.83;6.57;;;;;;;0.14;92.61;102752.34;5059320;28;20029;-64
2023/03/01 08:07:40;;;;;;;9.20;7.00;;;;;;;0.45;92.93;102755.53;5065363;28;20587;-64
2023/03/01 08:10:06;;;;;;;7.40;6.63;;;;;;;0.89;91.24;102749.75;5065788;28;20060;-64
2023/03/01 08:12:31;;;;;;;7.90;6.70;;;;;;;1.26;86.16;102752.59;5059616;28;20087;-64
2023/03/01 08:14:56;;;;;;;8.60;6.60;;;;;;;1.48;84.21;102751.28;5060189;28;20032;-64
2023/03/01 08:17:22;;;;;;;8.70;6.63;;;;;;;1.61;82.83;102746.66;5057961;28;20461;-64
2023/03/01 08:19:47;;;;;;;7.60;6.60;;;;;;;1.81;81.78;102745.16;5066146;28;20103;-65
2023/03/01 08:22:13;;;;;;;7.30;6.60;;;;;;;2.21;82.00;102743.06;5059637;28;20024;-64
2023/03/01 08:24:38;;;;;;;7.27;5.80;;;;;;;2.64;79.11;102742.81;5054690;28;20021;-65
2023/03/01 08:27:03;;;;;;;7.60;6.47;;;;;;;3.08;77.75;102740.06;5053912;28;20661;-65
2023/03/01 08:29:33;;;;;;;8.03;6.63;;;;;;;3.53;75.44;102750.94;5055514;28;20110;-65
2023/03/01 08:31:59;;;;;;;9.33;6.23;;;;;;;4.04;73.72;102749.50;5061317;28;20028;-65
2023/03/01 08:34:24;;;;;;;7.37;6.17;;;;;;;4.41;70.34;102743.25;5058333;28;20350;-65
2023/03/01 08:36:51;;;;;;;7.47;5.93;;;;;;;4.84;68.83;102740.09;5060578;28;20036;-65
2023/03/01 08:39:19;;;;;;;7.60;6.17;;;;;;;5.13;66.16;102733.94;5055890;28;20375;-65
2023/03/01 08:41:45;;;;;;;8.50;6.37;;;;;;;5.35;65.12;102736.66;5066398;28;20383;-67
2023/03/01 08:44:13;;;;;;;6.55;5.45;;;;;;;5.36;63.78;102730.75;5067000;28;20024;-65
2023/03/01 08:46:40;;;;;;;6.60;5.85;;;;;;;5.36;63.99;102727.28;5065125;28;20070;-65
2023/03/01 08:49:16;;;;;;;8.02;5.53;;;;;;;5.28;62.71;102719.84;5065067;28;20221;-65
2023/03/01 08:51:43;;;;;;;5.85;5.15;;;;;;;5.26;62.57;102720.47;5064395;28;20036;-65
2023/03/01 08:54:18;;;;;;;6.28;4.75;;;;;;;5.16;62.04;102716.22;5065533;28;20139;-65
2023/03/01 08:56:44;;;;;;;6.82;6.22;;;;;;;5.05;61.98;102717.88;5066275;28;20028;-65
2023/03/01 08:59:10;;;;;;;7.22;5.40;;;;;;;5.11;62.35;102727.78;5065343;28;20838;-65
2023/03/01 09:01:36;;;;;;;5.97;5.32;;;;;;;5.13;62.07;102727.13;5066332;28;20034;-65
2023/03/01 09:04:02;;;;;;;5.93;5.38;;;;;;;5.04;62.81;102719.53;5067478;28;20055;-65
2023/03/01 09:06:31;;;;;;;6.07;5.47;;;;;;;5.19;61.37;102719.06;5067558;28;20461;-65
2023/03/01 09:08:56;;;;;;;6.60;6.00;;;;;;;5.22;59.42;102716.72;5066932;28;20040;-65
2023/03/01 09:11:22;;;;;;;6.43;5.82;;;;;;;5.38;60.74;102707.72;5067483;28;20429;-65
2023/03/01 09:13:49;;;;;;;5.85;5.18;;;;;;;5.69;59.31;102707.69;5067216;28;20487;-65
2023/03/01 09:16:17;;;;;;;6.90;5.20;;;;;;;5.90;58.63;102712.78;5067035;28;20437;-65
2023/03/01 09:18:43;;;;;;;5.90;5.30;;;;;;;6.16;57.52;102705.41;5069666;28;20031;-65
2023/03/01 09:21:16;;;;;;;7.25;5.60;;;;;;;6.18;58.41;102707.34;5071178;28;20402;-65
2023/03/01 09:23:44;;;;;;;8.07;6.10;;;;;;;6.36;56.08;102699.28;5070585;28;20070;-64
2023/03/01 09:26:11;;;;;;;5.97;5.35;;;;;;;6.27;57.71;102701.13;5070843;28;20028;-65
2023/03/01 09:28:37;;;;;;;7.53;5.95;;;;;;;6.23;56.96;102695.75;5070651;28;20054;-68
2023/03/01 09:31:03;;;;;;;6.60;5.53;;;;;;;6.19;56.59;102703.09;5071150;28;20024;-68
2023/03/01 09:33:30;;;;;;;7.40;5.38;;;;;;;6.16;56.71;102698.59;5070648;28;20488;-67
2023/03/01 09:36:06;;;;;;;5.90;5.25;;;;;;;6.21;55.96;102693.81;5070867;28;20111;-67
2023/03/01 09:38:32;;;;;;;8.88;5.63;;;;;;;6.09;55.47;102688.59;5071088;28;20532;-67
2023/03/01 09:40:57;;;;;;;6.25;5.15;;;;;;;6.05;55.86;102691.63;5070567;28;20117;-67
2023/03/01 09:43:46;;;;;;;5.80;5.20;;;;;;;5.92;55.76;102692.34;5070330;28;20020;-66
2023/03/01 09:46:16;;;;;;;6.28;5.35;;;;;;;5.99;55.01;102692.94;5069851;28;20028;-66
2023/03/01 09:48:45;;;;;;;5.95;4.88;;;;;;;5.66;54.13;102689.44;5070329;28;20115;-65
2023/03/01 09:51:33;;;;;;;5.88;5.28;;;;;;;5.57;56.52;102678.41;5070515;28;20043;-65
2023/03/01 09:54:00;;;;;;;9.25;5.40;;;;;;;5.33;55.81;102678.16;5070232;28;20029;-67
2023/03/01 09:56:46;;;;;;;5.75;5.05;;;;;;;5.28;56.43;102681.28;5069882;28;20037;-66
2023/03/01 09:59:24;;;;;;;6.07;5.43;;;;;;;5.24;56.94;102668.91;5070322;28;20668;-67
2023/03/01 10:02:27;;;;;;;7.32;5.28;;;;;;;5.22;56.82;102670.47;5070009;28;20028;-66
2023/03/01 10:05:18;;;;;;;6.38;5.43;;;;;;;5.10;55.87;102666.88;5069819;28;20081;-66
2023/03/01 10:07:55;;;;;;;6.70;5.22;;;;;;;5.02;56.62;102656.84;5069801;28;20519;-66
2023/03/01 10:10:31;;;;;;;6.20;5.60;;;;;;;4.92;56.78;102647.47;5070094;28;20025;-66
2023/03/01 10:12:57;;;;;;;7.33;5.73;;;;;;;4.88;58.37;102644.50;5069981;28;20051;-66
2023/03/01 10:15:34;;;;;;;5.97;5.13;;;;;;;4.76;58.82;102640.13;5069617;28;20508;-66
2023/03/01 10:18:07;;;;;;;6.53;5.40;;;;;;;4.72;59.64;102635.50;5070054;28;20071;-66
2023/03/01 10:20:48;;;;;;;5.90;4.87;;;;;;;4.73;59.26;102637.28;5070102;28;20483;-66
2023/03/01 10:23:13;;;;;;;7.45;5.00;;;;;;;4.74;59.65;102627.91;5069726;28;20020;-66
2023/03/01 10:25:46;;;;;;;6.97;5.60;;;;;;;4.73;59.41;102629.56;5069790;28;20027;-65
2023/03/01 10:28:12;;;;;;;6.18;5.15;;;;;;;4.75;59.26;102620.34;5069237;28;20476;-66
2023/03/01 10:30:43;;;;;;;5.97;5.20;;;;;;;4.85;59.86;102618.56;5069266;28;20093;-66
2023/03/01 10:33:23;;;;;;;6.57;5.43;;;;;;;4.89;59.21;102615.47;5069941;28;20112;-66
2023/03/01 10:35:49;;;;;;;6.47;5.47;;;;;;;4.71;56.26;102620.88;5069531;28;20174;-66
2023/03/01 10:38:16;;;;;;;6.17;4.60;;;;;;;4.58;56.59;102624.06;5069758;28;20111;-66
2023/03/01 10:40:56;;;;;;;8.27;5.88;;;;;;;4.50;56.47;102618.25;5068937;28;20496;-66
2023/03/01 10:43:22;;;;;;;6.20;4.80;;;;;;;4.55;56.90;102610.97;5069172;28;20025;-66
2023/03/01 10:45:48;;;;;;;6.53;5.30;;;;;;;4.57;57.40;102612.88;5069186;28;20056;-66
2023/03/01 10:48:26;;;;;;;5.53;4.93;;;;;;;4.57;56.75;102612.88;5069245;28;20058;-66
2023/03/01 10:50:57;;;;;;;6.45;4.80;;;;;;;4.47;55.32;102610.28;5068700;28;20048;-66
2023/03/01 10:53:26;;;;;;;;;;;;;;;4.38;55.62;102614.63;5070190;28;20102;-66
2023/03/01 10:56:15;;;;;;;5.70;5.10;;;;;;;4.40;56.00;102613.09;5069254;28;19966;-66
2023/03/01 10:59:00;;;;;;;6.03;5.40;;;;;;;4.42;56.91;102609.00;5069371;28;20021;-66
2023/03/01 11:01:29;;;;;;;6.23;5.20;;;;;;;4.44;56.57;102613.50;5068695;28;20024;-66
2023/03/01 11:04:06;;;;;;;7.07;5.47;;;;;;;4.45;56.31;102611.81;5069088;28;20389;-66
2023/03/01 11:06:34;;;;;;;6.27;5.67;;;;;;;4.45;56.94;102614.41;5069227;28;20093;-66
2023/03/01 11:09:20;;;;;;;6.70;6.00;;;;;;;4.47;57.04;102610.28;5068939;28;20033;-66
2023/03/01 11:11:51;;;;;;;6.17;5.50;;;;;;;4.52;57.91;102613.25;5069276;28;20032;-66
2023/03/01 11:14:21;;;;;;;5.85;5.35;;;;;;;4.59;57.44;102604.41;5068660;28;20032;-66
2023/03/01 11:16:48;;;;;;;6.35;5.75;;;;;;;4.68;57.90;102607.75;5069492;28;20040;-67
2023/03/01 11:19:21;;;;;;;6.87;5.63;;;;;;;4.73;55.99;102611.59;5068797;28;20021;-67
2023/03/01 11:22:03;;;;;;;9.07;6.10;;;;;;;4.75;55.92;102602.34;5068726;28;20161;-67
2023/03/01 11:24:34;;;;;;;7.10;6.10;;;;;;;4.65;55.78;102607.50;5067957;28;20059;-67
2023/03/01 11:27:01;;;;;;;;;;;;;;;4.77;56.72;102594.78;5069265;28;20039;-67